createdAt,value
2018-11-23T00:00:41.464Z,95773.09
2018-11-23T00:03:11.581Z,95773.19
2018-11-23T00:05:42.052Z,95767.34
2018-11-23T00:08:11.791Z,95772.41
2018-11-23T00:10:43.591Z,95769.77
2018-11-23T00:13:13.037Z,95771.41
2018-11-23T00:18:23.437Z,95776.86
2018-11-23T00:23:38.655Z,95777.98
2018-11-23T00:26:11.470Z,95774.04
2018-11-23T00:28:43.463Z,95770.42
2018-11-23T00:31:12.325Z,95778.29
2018-11-23T00:33:46.769Z,95777.38
2018-11-23T00:36:19.360Z,95779.66
2018-11-23T00:39:00.011Z,95785.78
2018-11-23T00:41:29.177Z,95783.98
2018-11-23T00:43:58.009Z,95789.96
2018-11-23T00:46:26.743Z,95794.25
2018-11-23T00:49:06.242Z,95789.78
2018-11-23T00:51:43.699Z,95789.78
2018-11-23T00:54:13.059Z,95785.48
2018-11-23T00:56:46.914Z,95797.80
2018-11-23T00:59:16.404Z,95797.14
2018-11-23T01:01:51.188Z,95797.05
2018-11-23T01:04:21.162Z,95792.08
2018-11-23T01:06:49.880Z,95785.03
2018-11-23T01:09:19.415Z,95788.09
2018-11-23T01:11:48.091Z,95786.79
2018-11-23T01:14:16.892Z,95783.16
2018-11-23T01:16:45.549Z,95787.55
2018-11-23T01:19:14.208Z,95781.03
2018-11-23T01:21:44.251Z,95779.66
2018-11-23T01:24:14.336Z,95780.72
2018-11-23T01:26:43.141Z,95776.73
2018-11-23T01:29:15.543Z,95780.38
2018-11-23T01:31:53.712Z,95770.81
2018-11-23T01:34:26.516Z,95771.12
2018-11-23T01:36:55.790Z,95768.94
2018-11-23T01:39:29.958Z,95773.11
2018-11-23T01:42:11.771Z,95770.68
2018-11-23T01:44:46.599Z,95774.98
2018-11-23T01:47:15.193Z,95770.16
2018-11-23T01:49:45.743Z,95771.13
2018-11-23T01:52:14.963Z,95771.88
2018-11-23T01:54:45.643Z,95765.32
2018-11-23T01:57:17.280Z,95771.88
2018-11-23T01:59:46.693Z,95770.68
2018-11-23T02:02:15.189Z,95777.78
2018-11-23T02:04:43.756Z,95775.29
2018-11-23T02:07:12.315Z,95772.58
2018-11-23T02:09:43.401Z,95767.89
2018-11-23T02:12:14.859Z,95775.43
2018-11-23T02:14:44.393Z,95774.14
2018-11-23T02:17:22.913Z,95772.95
2018-11-23T02:20:01.972Z,95771.27
2018-11-23T02:22:31.034Z,95772.19
2018-11-23T02:25:06.736Z,95775.12
2018-11-23T02:27:35.978Z,95785.87
2018-11-23T02:30:13.347Z,95786.63
2018-11-23T02:39:36.848Z,95781.88
2018-11-23T02:50:08.761Z,95780.88
2018-11-23T02:52:58.425Z,95770.29
2018-11-23T03:01:57.794Z,95785.04
2018-11-23T03:07:10.552Z,95777.55
2018-11-23T03:09:43.460Z,95783.09
2018-11-23T03:12:11.889Z,95791.60
2018-11-23T03:14:40.352Z,95794.37
2018-11-23T03:17:08.840Z,95799.47
2018-11-23T03:19:37.320Z,95795.44
2018-11-23T03:22:05.894Z,95799.47
2018-11-23T03:24:34.357Z,95791.50
2018-11-23T03:27:04.413Z,95798.63
2018-11-23T03:29:32.892Z,95801.17
2018-11-23T03:32:02.853Z,95802.00
2018-11-23T03:34:31.358Z,95802.73
2018-11-23T03:36:59.812Z,95801.39
2018-11-23T03:39:34.060Z,95804.52
2018-11-23T03:41:56.876Z,95800.45
2018-11-23T03:44:25.348Z,95805.41
2018-11-23T03:46:53.795Z,95807.40
2018-11-23T03:49:22.354Z,95808.45
2018-11-23T03:51:50.767Z,95806.61
2018-11-23T03:54:19.212Z,95806.24
2018-11-23T03:56:47.643Z,95805.67
2018-11-23T03:59:16.100Z,95804.36
2018-11-23T04:01:44.624Z,95806.95
2018-11-23T04:04:13.139Z,95809.09
2018-11-23T04:06:41.650Z,95805.52
2018-11-23T04:09:10.195Z,95794.83
2018-11-23T04:11:38.631Z,95797.34
2018-11-23T04:14:07.097Z,95791.89
2018-11-23T04:16:35.599Z,95788.39
2018-11-23T04:19:05.321Z,95789.41
2018-11-23T04:21:33.772Z,95789.62
2018-11-23T04:24:03.969Z,95792.64
2018-11-23T04:26:32.431Z,95791.98
2018-11-23T04:29:00.883Z,95798.99
2018-11-23T04:31:29.369Z,95792.36
2018-11-23T04:33:57.879Z,95804.53
2018-11-23T04:36:26.359Z,95809.45
2018-11-23T04:38:54.815Z,95801.30
2018-11-23T04:41:23.308Z,95809.20
2018-11-23T04:43:51.788Z,95817.20
2018-11-23T04:46:20.248Z,95812.98
2018-11-23T04:48:48.704Z,95825.36
2018-11-23T04:51:17.161Z,95820.55
2018-11-23T04:53:45.590Z,95832.27
2018-11-23T04:56:14.065Z,95830.44
2018-11-23T04:58:42.534Z,95843.05
2018-11-23T05:01:11.009Z,95838.84
2018-11-23T05:03:39.440Z,95837.27
2018-11-23T05:06:07.938Z,95830.59
2018-11-23T05:08:36.367Z,95829.11
2018-11-23T05:11:05.262Z,95820.44
2018-11-23T05:13:33.744Z,95831.05
2018-11-23T05:16:04.502Z,95836.30
2018-11-23T05:18:32.977Z,95827.39
2018-11-23T05:21:03.773Z,95824.72
2018-11-23T05:23:32.187Z,95821.86
2018-11-23T05:26:00.740Z,95823.50
2018-11-23T05:28:29.237Z,95817.17
2018-11-23T05:30:57.648Z,95820.88
2018-11-23T05:33:26.221Z,95825.34
2018-11-23T05:35:54.643Z,95821.53
2018-11-23T05:38:23.099Z,95826.31
2018-11-23T05:40:51.563Z,95825.26
2018-11-23T05:43:20.042Z,95828.88
2018-11-23T05:45:48.503Z,95824.29
2018-11-23T05:48:16.980Z,95821.48
2018-11-23T05:50:45.400Z,95817.80
2018-11-23T05:53:13.918Z,95816.72
2018-11-23T05:55:42.509Z,95816.34
2018-11-23T05:58:11.002Z,95818.17
2018-11-23T06:00:40.107Z,95809.19
2018-11-23T06:03:08.589Z,95813.50
2018-11-23T06:05:37.070Z,95814.06
2018-11-23T06:08:05.588Z,95811.56
2018-11-23T06:10:34.043Z,95804.70
2018-11-23T06:13:03.947Z,95807.81
2018-11-23T06:15:32.351Z,95811.69
2018-11-23T06:18:00.839Z,95806.50
2018-11-23T06:20:29.280Z,95803.58
2018-11-23T06:22:57.843Z,95800.25
2018-11-23T06:25:44.341Z,95805.39
2018-11-23T06:28:13.091Z,95802.61
2018-11-23T06:30:42.263Z,95799.21
2018-11-23T06:33:21.977Z,95802.26
2018-11-23T06:35:50.416Z,95804.43
2018-11-23T06:38:18.823Z,95805.81
2018-11-23T06:40:47.253Z,95804.84
2018-11-23T06:43:15.645Z,95806.25
2018-11-23T06:45:44.874Z,95806.34
2018-11-23T06:48:14.132Z,95802.80
2018-11-23T06:50:43.219Z,95797.97
2018-11-23T06:53:11.604Z,95804.75
2018-11-23T06:55:40.010Z,95804.52
2018-11-23T06:58:08.395Z,95801.84
2018-11-23T07:00:36.811Z,95797.24
2018-11-23T07:03:05.343Z,95801.22
2018-11-23T07:05:33.739Z,95809.77
2018-11-23T07:08:04.815Z,95817.72
2018-11-23T07:10:33.257Z,95819.23
2018-11-23T07:13:03.666Z,95823.83
2018-11-23T07:15:32.099Z,95828.55
2018-11-23T07:18:00.618Z,95834.52
2018-11-23T07:20:29.054Z,95831.80
2018-11-23T07:22:57.499Z,95832.28
2018-11-23T07:25:25.904Z,95835.84
2018-11-23T07:27:54.318Z,95831.39
2018-11-23T07:30:27.090Z,95828.73
2018-11-23T07:32:55.603Z,95825.52
2018-11-23T07:35:24.020Z,95822.27
2018-11-23T07:37:52.512Z,95822.78
2018-11-23T07:40:40.619Z,95826.34
2018-11-23T07:43:09.034Z,95824.11
2018-11-23T07:45:37.427Z,95830.94
2018-11-23T07:48:06.551Z,95831.05
2018-11-23T07:50:34.962Z,95836.61
2018-11-23T07:53:05.150Z,95839.94
2018-11-23T07:55:33.527Z,95843.74
2018-11-23T07:58:04.534Z,95835.61
2018-11-23T08:00:32.944Z,95833.49
2018-11-23T08:03:03.586Z,95835.01
2018-11-23T08:05:31.980Z,95830.45
2018-11-23T08:08:00.460Z,95826.38
2018-11-23T08:10:28.003Z,95821.77
2018-11-23T08:12:56.392Z,95818.53
2018-11-23T08:15:26.163Z,95820.83
2018-11-23T08:17:54.563Z,95820.88
2018-11-23T08:20:24.044Z,95812.59
2018-11-23T08:22:52.439Z,95803.63
2018-11-23T08:25:22.029Z,95791.39
2018-11-23T08:27:51.499Z,95791.17
2018-11-23T08:30:24.637Z,95794.83
2018-11-23T08:32:53.322Z,95804.39
2018-11-23T08:35:21.718Z,95816.83
2018-11-23T08:37:50.167Z,95813.80
2018-11-23T08:40:20.775Z,95808.87
2018-11-23T08:42:49.983Z,95806.36
2018-11-23T08:45:20.395Z,95806.87
2018-11-23T08:47:48.840Z,95804.95
2018-11-23T08:50:20.727Z,95796.89
2018-11-23T08:52:49.268Z,95803.98
2018-11-23T08:55:18.227Z,95810.36
2018-11-23T08:57:46.664Z,95814.41
2018-11-23T09:00:20.139Z,95812.28
2018-11-23T09:02:49.787Z,95811.88
2018-11-23T09:05:18.466Z,95809.43
2018-11-23T09:07:47.908Z,95806.66
2018-11-23T09:10:18.012Z,95797.66
2018-11-23T09:12:48.390Z,95793.97
2018-11-23T09:15:17.600Z,95783.22
2018-11-23T09:17:46.107Z,95798.10
2018-11-23T09:20:15.233Z,95800.97
2018-11-23T09:22:43.693Z,95814.98
2018-11-23T09:25:13.619Z,95819.28
2018-11-23T09:27:42.035Z,95820.48
2018-11-23T09:30:15.207Z,95818.31
2018-11-23T09:32:44.408Z,95812.86
2018-11-23T09:35:12.886Z,95809.16
2018-11-23T09:37:41.776Z,95800.27
2018-11-23T09:40:16.287Z,95795.02
2018-11-23T09:42:44.716Z,95794.43
2018-11-23T09:45:15.629Z,95785.03
2018-11-23T09:47:44.804Z,95777.31
2018-11-23T09:50:14.692Z,95770.14
2018-11-23T09:52:43.736Z,95774.99
2018-11-23T09:55:12.214Z,95775.23
2018-11-23T09:57:40.943Z,95775.96
2018-11-23T10:00:16.160Z,95787.07
2018-11-23T10:02:45.383Z,95783.78
2018-11-23T10:05:14.687Z,95777.15
2018-11-23T10:07:44.336Z,95766.08
2018-11-23T10:10:13.930Z,95757.59
2018-11-23T10:12:42.680Z,95752.84
2018-11-23T10:15:12.381Z,95753.05
2018-11-23T10:17:40.935Z,95751.24
2018-11-23T10:20:12.626Z,95743.25
2018-11-23T10:22:41.511Z,95739.67
2018-11-23T10:25:11.578Z,95728.75
2018-11-23T10:27:40.669Z,95721.05
2018-11-23T10:30:18.567Z,95723.69
2018-11-23T10:32:48.031Z,95723.00
2018-11-23T10:35:16.411Z,95718.32
2018-11-23T10:37:45.848Z,95703.33
2018-11-23T10:40:18.091Z,95697.19
2018-11-23T10:42:46.631Z,95701.06
2018-11-23T10:45:20.857Z,95691.88
2018-11-23T10:47:50.021Z,95682.70
2018-11-23T10:50:20.828Z,95686.62
2018-11-23T10:52:49.412Z,95681.70
2018-11-23T10:55:19.952Z,95681.69
2018-11-23T10:57:48.422Z,95682.70
2018-11-23T11:00:23.164Z,95678.55
2018-11-23T11:02:58.075Z,95672.14
2018-11-23T11:05:31.687Z,95676.34
2018-11-23T11:08:03.815Z,95672.66
2018-11-23T11:10:32.232Z,95665.20
2018-11-23T11:13:00.709Z,95659.30
2018-11-23T11:15:29.166Z,95664.47
2018-11-23T11:17:57.554Z,95659.30
2018-11-23T11:20:25.955Z,95658.59
2018-11-23T11:22:54.385Z,95655.42
2018-11-23T11:25:23.000Z,95656.35
2018-11-23T11:27:51.535Z,95656.50
2018-11-23T11:30:20.313Z,95654.63
2018-11-23T11:32:49.425Z,95652.83
2018-11-23T11:35:17.936Z,95645.92
2018-11-23T11:37:47.528Z,95643.97
2018-11-23T11:40:17.569Z,95641.27
2018-11-23T11:42:46.212Z,95640.75
2018-11-23T11:45:16.084Z,95642.47
2018-11-23T11:47:45.262Z,95652.05
2018-11-23T11:50:14.150Z,95655.19
2018-11-23T11:52:43.810Z,95650.16
2018-11-23T11:55:14.236Z,95643.56
2018-11-23T11:57:43.298Z,95633.14
2018-11-23T12:00:16.460Z,95628.61
2018-11-23T12:02:45.066Z,95619.81
2018-11-23T12:05:14.278Z,95605.89
2018-11-23T12:07:42.796Z,95606.13
2018-11-23T12:10:13.767Z,95606.80
2018-11-23T12:12:42.245Z,95603.55
2018-11-23T12:15:11.774Z,95596.27
2018-11-23T12:17:40.547Z,95595.61
2018-11-23T12:20:12.036Z,95588.05
2018-11-23T12:22:40.731Z,95586.38
2018-11-23T12:25:09.291Z,95581.83
2018-11-23T12:27:37.771Z,95577.11
2018-11-23T12:30:10.656Z,95579.72
2018-11-23T12:32:39.145Z,95573.19
2018-11-23T12:35:09.016Z,95568.69
2018-11-23T12:37:37.424Z,95559.80
2018-11-23T12:40:07.247Z,95556.03
2018-11-23T12:42:35.643Z,95549.79
2018-11-23T12:45:06.555Z,95546.61
2018-11-23T12:47:34.938Z,95537.05
2018-11-23T12:50:06.255Z,95543.14
2018-11-23T12:52:34.661Z,95540.02
2018-11-23T12:55:05.788Z,95529.98
2018-11-23T12:57:34.256Z,95528.46
2018-11-23T13:00:06.140Z,95526.73
2018-11-23T13:02:34.555Z,95523.07
2018-11-23T13:05:05.371Z,95520.50
2018-11-23T13:07:33.742Z,95516.59
2018-11-23T13:10:04.578Z,95517.38
2018-11-23T13:12:32.955Z,95512.91
2018-11-23T13:15:03.527Z,95511.61
2018-11-23T13:17:31.969Z,95510.97
2018-11-23T13:20:00.532Z,95506.84
2018-11-23T13:22:28.960Z,95515.81
2018-11-23T13:24:57.338Z,95510.28
2018-11-23T13:27:25.803Z,95509.12
2018-11-23T13:29:54.280Z,95511.09
2018-11-23T13:32:22.722Z,95515.11
2018-11-23T13:34:51.108Z,95515.55
2018-11-23T13:37:20.062Z,95514.55
2018-11-23T13:39:48.448Z,95512.17
2018-11-23T13:42:16.844Z,95510.80
2018-11-23T13:44:45.243Z,95505.41
2018-11-23T13:47:13.663Z,95511.20
2018-11-23T13:49:42.059Z,95511.03
2018-11-23T13:52:10.439Z,95512.94
2018-11-23T13:54:39.115Z,95508.16
2018-11-23T13:57:07.509Z,95505.52
2018-11-23T13:59:35.912Z,95500.36
2018-11-23T14:02:05.147Z,95496.36
2018-11-23T14:04:33.531Z,95488.58
2018-11-23T14:07:04.522Z,95489.45
2018-11-23T14:09:33.906Z,95483.17
2018-11-23T14:12:04.476Z,95484.47
2018-11-23T14:14:33.066Z,95478.05
2018-11-23T14:17:03.454Z,95475.80
2018-11-23T14:19:31.938Z,95473.89
2018-11-23T14:22:00.369Z,95471.63
2018-11-23T14:24:28.956Z,95476.84
2018-11-23T14:26:57.501Z,95474.45
2018-11-23T14:29:25.895Z,95474.91
2018-11-23T14:31:54.725Z,95471.52
2018-11-23T14:34:23.164Z,95470.08
2018-11-23T14:36:51.675Z,95463.66
2018-11-23T14:39:20.050Z,95459.45
2018-11-23T14:41:48.458Z,95459.73
2018-11-23T14:44:16.991Z,95455.59
2018-11-23T14:46:45.415Z,95456.24
2018-11-23T14:49:14.460Z,95449.27
2018-11-23T14:51:42.872Z,95457.53
2018-11-23T14:54:11.344Z,95459.41
2018-11-23T14:56:40.195Z,95460.47
2018-11-23T14:59:08.862Z,95458.16
2018-11-23T15:01:37.230Z,95453.97
2018-11-23T15:04:05.680Z,95444.58
2018-11-23T15:06:34.107Z,95440.99
2018-11-23T15:09:04.627Z,95446.69
2018-11-23T15:11:39.655Z,95441.16
2018-11-23T15:14:08.840Z,95442.47
2018-11-23T15:16:37.569Z,95449.52
2018-11-23T15:19:06.762Z,95451.45
2018-11-23T15:21:35.186Z,95447.06
2018-11-23T15:24:06.099Z,95443.47
2018-11-23T15:26:34.559Z,95444.76
2018-11-23T15:29:05.535Z,95440.80
2018-11-23T15:31:33.971Z,95439.51
2018-11-23T15:34:04.628Z,95437.95
2018-11-23T15:36:33.103Z,95437.22
2018-11-23T15:39:03.671Z,95436.30
2018-11-23T15:41:32.055Z,95435.28
2018-11-23T15:44:00.531Z,95438.07
2018-11-23T15:46:28.952Z,95438.91
2018-11-23T15:48:57.419Z,95422.80
2018-11-23T15:51:25.832Z,95434.30
2018-11-23T15:53:54.279Z,95430.41
2018-11-23T15:56:22.673Z,95426.95
2018-11-23T15:58:51.897Z,95428.42
2018-11-23T16:01:20.364Z,95423.86
2018-11-23T16:03:48.868Z,95419.84
2018-11-23T16:06:17.359Z,95419.36
2018-11-23T16:08:45.747Z,95421.83
2018-11-23T16:11:14.176Z,95419.02
2018-11-23T16:13:42.588Z,95420.48
2018-11-23T16:16:11.082Z,95415.30
2018-11-23T16:18:39.491Z,95415.32
2018-11-23T16:21:07.951Z,95409.27
2018-11-23T16:23:36.391Z,95405.38
2018-11-23T16:26:06.027Z,95403.09
2018-11-23T16:28:34.618Z,95406.88
2018-11-23T16:31:05.891Z,95399.72
2018-11-23T16:33:34.336Z,95402.20
2018-11-23T16:36:05.113Z,95401.64
2018-11-23T16:38:34.007Z,95399.34
2018-11-23T16:41:04.432Z,95397.32
2018-11-23T16:43:33.183Z,95395.38
2018-11-23T16:46:03.516Z,95391.97
2018-11-23T16:48:31.904Z,95391.52
2018-11-23T16:51:00.333Z,95398.58
2018-11-23T16:53:28.719Z,95391.52
2018-11-23T16:55:57.166Z,95385.89
2018-11-23T16:58:25.570Z,95382.50
2018-11-23T17:00:54.014Z,95377.62
2018-11-23T17:03:23.212Z,95374.05
2018-11-23T17:05:54.123Z,95367.61
2018-11-23T17:08:22.510Z,95368.62
2018-11-23T17:10:50.927Z,95366.67
2018-11-23T17:13:19.403Z,95368.79
2018-11-23T17:15:47.818Z,95364.58
2018-11-23T17:18:16.301Z,95347.73
2018-11-23T17:20:44.724Z,95345.52
2018-11-23T17:23:14.039Z,95351.77
2018-11-23T17:25:42.418Z,95350.03
2018-11-23T17:28:11.613Z,95343.80
2018-11-23T17:30:40.368Z,95350.14
2018-11-23T17:33:08.767Z,95343.77
2018-11-23T17:35:37.883Z,95339.11
2018-11-23T17:38:06.631Z,95344.25
2018-11-23T17:40:37.358Z,95333.30
2018-11-23T17:43:05.987Z,95328.05
2018-11-23T17:45:34.804Z,95326.68
2018-11-23T17:48:06.048Z,95323.83
2018-11-23T17:50:35.873Z,95314.72
2018-11-23T17:53:05.355Z,95319.13
2018-11-23T17:55:33.960Z,95310.41
2018-11-23T17:58:04.644Z,95308.00
2018-11-23T18:00:38.902Z,95299.92
2018-11-23T18:03:04.930Z,95310.05
2018-11-23T18:05:34.181Z,95296.52
2018-11-23T18:08:05.362Z,95304.73
2018-11-23T18:10:34.506Z,95306.47
2018-11-23T18:13:05.724Z,95300.48
2018-11-23T18:15:34.982Z,95300.66
2018-11-23T18:18:06.796Z,95292.70
2018-11-23T18:20:35.503Z,95293.88
2018-11-23T18:23:05.811Z,95294.71
2018-11-23T18:25:36.204Z,95283.13
2018-11-23T18:28:06.906Z,95280.90
2018-11-23T18:30:35.450Z,95277.49
2018-11-23T18:33:07.544Z,95268.41
2018-11-23T18:35:35.967Z,95267.93
2018-11-23T18:38:05.135Z,95263.23
2018-11-23T18:40:37.547Z,95264.80
2018-11-23T18:43:04.636Z,95259.47
2018-11-23T18:45:33.123Z,95254.43
2018-11-23T18:48:03.535Z,95241.95
2018-11-23T18:50:32.016Z,95235.89
2018-11-23T18:53:00.421Z,95225.95
2018-11-23T18:55:28.883Z,95214.27
2018-11-23T18:57:57.340Z,95203.43
2018-11-23T19:00:26.036Z,95196.36
2018-11-23T19:02:54.503Z,95187.88
2018-11-23T19:05:24.724Z,95198.73
2018-11-23T19:07:53.223Z,95212.98
2018-11-23T19:10:21.660Z,95208.05
2018-11-23T19:12:50.139Z,95201.06
2018-11-23T19:15:25.230Z,95200.05
2018-11-23T19:17:47.679Z,95197.28
2018-11-23T19:20:21.539Z,95202.14
2018-11-23T19:22:52.048Z,95191.84
2018-11-23T19:25:20.513Z,95177.52
2018-11-23T19:27:48.961Z,95175.19
2018-11-23T19:30:19.060Z,95164.17
2018-11-23T19:32:47.529Z,95151.85
2018-11-23T19:35:16.666Z,95151.58
2018-11-23T19:37:45.511Z,95151.02
2018-11-23T19:40:16.039Z,95153.15
2018-11-23T19:42:45.487Z,95150.85
2018-11-23T19:45:16.008Z,95155.64
2018-11-23T19:47:44.667Z,95155.32
2018-11-23T19:50:16.964Z,95151.57
2018-11-23T19:52:45.568Z,95149.38
2018-11-23T19:55:15.189Z,95139.61
2018-11-23T19:57:43.676Z,95132.09
2018-11-23T20:00:29.682Z,95140.26
2018-11-23T20:02:58.109Z,95129.02
2018-11-23T20:05:26.847Z,95126.61
2018-11-23T20:07:56.456Z,95113.53
2018-11-23T20:10:25.436Z,95114.14
2018-11-23T20:12:57.676Z,95113.39
2018-11-23T20:15:26.168Z,95114.70
2018-11-23T20:17:56.442Z,95112.13
2018-11-23T20:20:25.587Z,95109.72
2018-11-23T20:22:54.147Z,95106.08
2018-11-23T20:25:22.585Z,95104.14
2018-11-23T20:27:52.469Z,95110.28
2018-11-23T20:30:28.100Z,95111.41
2018-11-23T20:32:56.548Z,95114.12
2018-11-23T20:35:24.990Z,95116.66
2018-11-23T20:37:55.478Z,95106.55
2018-11-23T20:40:24.188Z,95107.52
2018-11-23T20:42:53.286Z,95101.11
2018-11-23T20:45:21.927Z,95094.81
2018-11-23T20:47:50.448Z,95097.25
2018-11-23T20:50:19.403Z,95096.66
2018-11-23T20:52:49.538Z,95085.84
2018-11-23T20:55:21.200Z,95072.95
2018-11-23T20:57:50.055Z,95076.24
2018-11-23T21:00:19.984Z,95067.91
2018-11-23T21:02:49.577Z,95060.70
2018-11-23T21:05:19.396Z,95057.91
2018-11-23T21:07:47.868Z,95050.38
2018-11-23T21:10:20.681Z,95055.48
2018-11-23T21:12:48.475Z,95052.27
2018-11-23T21:15:26.613Z,95048.09
2018-11-23T21:17:55.562Z,95048.11
2018-11-23T21:20:24.037Z,95039.73
2018-11-23T21:22:52.879Z,95029.00
2018-11-23T21:25:22.233Z,95035.25
2018-11-23T21:27:53.308Z,95032.75
2018-11-23T21:30:25.048Z,95028.48
2018-11-23T21:32:55.972Z,95029.05
2018-11-23T21:35:27.249Z,95027.94
2018-11-23T21:37:57.297Z,95030.34
2018-11-23T21:40:29.447Z,95025.64
2018-11-23T21:42:59.642Z,95027.31
2018-11-23T21:45:31.790Z,95034.64
2018-11-23T21:48:08.803Z,95031.41
2018-11-23T21:50:46.197Z,95022.52
2018-11-23T21:53:15.846Z,95029.22
2018-11-23T21:55:45.853Z,95023.18
2018-11-23T21:58:21.163Z,95015.72
2018-11-23T22:00:49.662Z,95013.22
2018-11-23T22:03:18.076Z,95006.27
2018-11-23T22:05:48.143Z,94989.85
2018-11-23T22:08:18.658Z,94994.34
2018-11-23T22:10:48.352Z,94994.27
2018-11-23T22:13:18.596Z,94995.30
2018-11-23T22:15:47.051Z,94992.98
2018-11-23T22:18:15.700Z,94975.28
2018-11-23T22:20:44.168Z,94988.77
2018-11-23T22:23:15.858Z,94990.84
2018-11-23T22:25:44.311Z,94972.37
2018-11-23T22:28:12.879Z,95002.90
2018-11-23T22:30:43.027Z,94981.33
2018-11-23T22:33:11.444Z,94980.42
2018-11-23T22:35:39.911Z,94987.30
2018-11-23T22:38:08.369Z,94969.69
2018-11-23T22:40:36.812Z,94962.80
2018-11-23T22:43:05.581Z,94956.44
2018-11-23T22:45:34.020Z,94965.63
2018-11-23T22:48:05.395Z,94958.97
2018-11-23T22:50:33.803Z,94956.55
2018-11-23T22:53:05.763Z,94956.52
2018-11-23T22:55:34.259Z,94962.27
2018-11-23T22:58:05.356Z,94962.80
2018-11-23T23:03:10.421Z,94975.93
2018-11-23T23:05:42.471Z,94971.95
2018-11-23T23:08:07.319Z,94969.69
2018-11-23T23:10:35.792Z,94970.94
2018-11-23T23:13:05.309Z,94981.99
2018-11-23T23:15:33.787Z,94959.70
2018-11-23T23:18:05.759Z,94953.78
2018-11-23T23:20:34.152Z,94953.87
2018-11-23T23:23:04.566Z,94952.69
2018-11-23T23:25:33.070Z,94950.42
2018-11-23T23:28:04.150Z,94937.47
2018-11-23T23:30:32.672Z,94934.63
2018-11-23T23:33:04.480Z,94937.25
2018-11-23T23:35:32.887Z,94924.49
2018-11-23T23:38:03.707Z,94926.71
2018-11-23T23:40:32.158Z,94933.20
2018-11-23T23:43:00.592Z,94925.20
2018-11-23T23:45:29.091Z,94931.04
2018-11-23T23:47:57.582Z,94925.25
2018-11-23T23:50:25.987Z,94918.09
2018-11-23T23:53:04.236Z,94910.59
2018-11-23T23:55:32.645Z,94910.11
2018-11-23T23:58:03.637Z,94914.87
